sensor_id;sensor_type;location;lat;lon;timestamp;pressure;altitude;pressure_sealevel;temperature;humidity
18850;BME280;4989;48.772;9.154;2023-07-30T00:04:17;97553.91;;;18.42;100.00
18850;BME280;4989;48.772;9.154;2023-07-30T00:09:25;97548.84;;;18.35;100.00
18850;BME280;4989;48.772;9.154;2023-07-30T00:14:30;97545.41;;;18.40;100.00
18850;BME280;4989;48.772;9.154;2023-07-30T00:19:32;97548.41;;;18.42;100.00
18850;BME280;4989;48.772;9.154;2023-07-30T00:24:40;97552.84;;;18.34;100.00
18850;BME280;4989;48.772;9.154;2023-07-30T00:29:46;97561.91;;;18.40;100.00
18850;BME280;4989;48.772;9.154;2023-07-30T00:34:49;97572.81;;;18.54;100.00
18850;BME280;4989;48.772;9.154;2023-07-30T00:39:56;97577.63;;;19.17;100.00
18850;BME280;4989;48.772;9.154;2023-07-30T00:44:58;97592.47;;;20.00;100.00
18850;BME280;4989;48.772;9.154;2023-07-30T00:50:01;97584.97;;;20.06;100.00
18850;BME280;4989;48.772;9.154;2023-07-30T01:00:37;97577.44;;;19.27;100.00
18850;BME280;4989;48.772;9.154;2023-07-30T01:05:50;97594.59;;;19.42;100.00
18850;BME280;4989;48.772;9.154;2023-07-30T01:10:58;97603.00;;;20.02;100.00
18850;BME280;4989;48.772;9.154;2023-07-30T01:16:00;97595.03;;;19.66;100.00
18850;BME280;4989;48.772;9.154;2023-07-30T01:21:03;97593.66;;;19.51;100.00
18850;BME280;4989;48.772;9.154;2023-07-30T01:26:12;97602.28;;;20.12;100.00
18850;BME280;4989;48.772;9.154;2023-07-30T01:31:26;97598.63;;;20.44;100.00
18850;BME280;4989;48.772;9.154;2023-07-30T01:36:35;97610.66;;;19.81;100.00
18850;BME280;4989;48.772;9.154;2023-07-30T01:41:37;97607.47;;;19.56;100.00
18850;BME280;4989;48.772;9.154;2023-07-30T01:46:45;97603.22;;;19.23;100.00
18850;BME280;4989;48.772;9.154;2023-07-30T01:51:48;97615.63;;;19.08;100.00
18850;BME280;4989;48.772;9.154;2023-07-30T01:56:52;97619.94;;;19.46;100.00
18850;BME280;4989;48.772;9.154;2023-07-30T02:01:56;97615.16;;;20.38;100.00
18850;BME280;4989;48.772;9.154;2023-07-30T02:06:58;97620.19;;;20.45;100.00
18850;BME280;4989;48.772;9.154;2023-07-30T02:12:02;97615.31;;;20.06;100.00
18850;BME280;4989;48.772;9.154;2023-07-30T02:17:05;97614.88;;;19.71;100.00
18850;BME280;4989;48.772;9.154;2023-07-30T02:22:07;97608.09;;;19.34;100.00
18850;BME280;4989;48.772;9.154;2023-07-30T02:27:09;97614.25;;;19.23;100.00
18850;BME280;4989;48.772;9.154;2023-07-30T02:32:11;97614.47;;;19.20;100.00
18850;BME280;4989;48.772;9.154;2023-07-30T02:37:14;97628.66;;;19.71;100.00
18850;BME280;4989;48.772;9.154;2023-07-30T02:42:16;97623.22;;;19.82;100.00
18850;BME280;4989;48.772;9.154;2023-07-30T02:47:18;97628.66;;;19.71;100.00
18850;BME280;4989;48.772;9.154;2023-07-30T02:52:20;97630.22;;;19.83;100.00
18850;BME280;4989;48.772;9.154;2023-07-30T02:57:23;97617.22;;;19.89;100.00
18850;BME280;4989;48.772;9.154;2023-07-30T03:02:25;97624.19;;;20.27;100.00
18850;BME280;4989;48.772;9.154;2023-07-30T03:07:28;97629.75;;;20.44;100.00
18850;BME280;4989;48.772;9.154;2023-07-30T03:12:30;97627.56;;;20.59;100.00
18850;BME280;4989;48.772;9.154;2023-07-30T03:17:32;97628.72;;;20.36;100.00
18850;BME280;4989;48.772;9.154;2023-07-30T03:22:35;97639.50;;;20.34;100.00
18850;BME280;4989;48.772;9.154;2023-07-30T03:27:37;97628.13;;;21.09;100.00
18850;BME280;4989;48.772;9.154;2023-07-30T03:32:39;97633.69;;;21.20;100.00
18850;BME280;4989;48.772;9.154;2023-07-30T03:37:42;97640.69;;;21.21;100.00
18850;BME280;4989;48.772;9.154;2023-07-30T03:42:45;97630.16;;;20.91;100.00
18850;BME280;4989;48.772;9.154;2023-07-30T03:47:48;97638.75;;;20.39;100.00
18850;BME280;4989;48.772;9.154;2023-07-30T03:52:50;97654.53;;;20.33;100.00
18850;BME280;4989;48.772;9.154;2023-07-30T03:57:52;97655.03;;;21.08;100.00
18850;BME280;4989;48.772;9.154;2023-07-30T04:02:55;97649.34;;;20.46;100.00
18850;BME280;4989;48.772;9.154;2023-07-30T04:07:57;97651.75;;;21.04;100.00
18850;BME280;4989;48.772;9.154;2023-07-30T04:13:00;97659.06;;;21.13;100.00
18850;BME280;4989;48.772;9.154;2023-07-30T04:18:02;97651.00;;;20.27;100.00
18850;BME280;4989;48.772;9.154;2023-07-30T04:23:04;97657.41;;;19.64;100.00
18850;BME280;4989;48.772;9.154;2023-07-30T04:28:07;97680.59;;;19.46;100.00
18850;BME280;4989;48.772;9.154;2023-07-30T04:33:10;97693.13;;;19.73;100.00
18850;BME280;4989;48.772;9.154;2023-07-30T04:38:14;97689.41;;;19.50;100.00
18850;BME280;4989;48.772;9.154;2023-07-30T04:43:17;97680.84;;;19.16;100.00
18850;BME280;4989;48.772;9.154;2023-07-30T04:48:22;97675.69;;;19.61;100.00
18850;BME280;4989;48.772;9.154;2023-07-30T04:53:25;97688.84;;;20.64;100.00
18850;BME280;4989;48.772;9.154;2023-07-30T04:58:28;97696.88;;;20.62;100.00
18850;BME280;4989;48.772;9.154;2023-07-30T05:03:31;97694.19;;;19.87;100.00
18850;BME280;4989;48.772;9.154;2023-07-30T05:08:33;97697.66;;;19.76;100.00
18850;BME280;4989;48.772;9.154;2023-07-30T05:13:35;97706.13;;;20.53;100.00
18850;BME280;4989;48.772;9.154;2023-07-30T05:18:37;97715.66;;;21.51;100.00
18850;BME280;4989;48.772;9.154;2023-07-30T05:23:39;97728.22;;;21.80;100.00
18850;BME280;4989;48.772;9.154;2023-07-30T05:28:42;97724.72;;;21.63;100.00
18850;BME280;4989;48.772;9.154;2023-07-30T05:33:44;97724.34;;;20.39;100.00
18850;BME280;4989;48.772;9.154;2023-07-30T05:38:46;97720.75;;;20.70;100.00
18850;BME280;4989;48.772;9.154;2023-07-30T05:43:49;97719.94;;;20.10;100.00
18850;BME280;4989;48.772;9.154;2023-07-30T05:48:51;97722.81;;;20.32;100.00
18850;BME280;4989;48.772;9.154;2023-07-30T05:53:53;97733.59;;;19.93;100.00
18850;BME280;4989;48.772;9.154;2023-07-30T05:58:55;97720.38;;;20.03;100.00
18850;BME280;4989;48.772;9.154;2023-07-30T06:03:58;97711.63;;;19.73;100.00
18850;BME280;4989;48.772;9.154;2023-07-30T06:09:00;97712.69;;;20.12;100.00
18850;BME280;4989;48.772;9.154;2023-07-30T06:14:02;97716.22;;;20.67;100.00
18850;BME280;4989;48.772;9.154;2023-07-30T06:19:05;97721.78;;;20.78;100.00
18850;BME280;4989;48.772;9.154;2023-07-30T06:24:07;97725.94;;;20.08;100.00
18850;BME280;4989;48.772;9.154;2023-07-30T06:29:09;97713.25;;;19.85;100.00
18850;BME280;4989;48.772;9.154;2023-07-30T06:34:11;97700.81;;;20.01;100.00
18850;BME280;4989;48.772;9.154;2023-07-30T06:39:14;97718.53;;;19.88;100.00
18850;BME280;4989;48.772;9.154;2023-07-30T06:44:16;97736.91;;;19.97;100.00
18850;BME280;4989;48.772;9.154;2023-07-30T06:49:18;97744.13;;;19.89;100.00
18850;BME280;4989;48.772;9.154;2023-07-30T06:54:20;97741.59;;;19.85;100.00
18850;BME280;4989;48.772;9.154;2023-07-30T06:59:25;97733.38;;;19.91;100.00
18850;BME280;4989;48.772;9.154;2023-07-30T07:04:28;97751.69;;;19.94;100.00
18850;BME280;4989;48.772;9.154;2023-07-30T07:09:30;97754.53;;;19.74;100.00
18850;BME280;4989;48.772;9.154;2023-07-30T07:14:32;97758.53;;;19.73;100.00
18850;BME280;4989;48.772;9.154;2023-07-30T07:19:34;97764.78;;;19.67;100.00
18850;BME280;4989;48.772;9.154;2023-07-30T07:24:38;97771.09;;;19.74;100.00
18850;BME280;4989;48.772;9.154;2023-07-30T07:29:40;97779.78;;;19.66;100.00
18850;BME280;4989;48.772;9.154;2023-07-30T07:34:50;97808.91;;;19.67;100.00
18850;BME280;4989;48.772;9.154;2023-07-30T07:39:52;97801.69;;;19.50;100.00
18850;BME280;4989;48.772;9.154;2023-07-30T07:44:54;97790.84;;;19.98;100.00
18850;BME280;4989;48.772;9.154;2023-07-30T07:49:57;97800.00;;;20.16;100.00
18850;BME280;4989;48.772;9.154;2023-07-30T07:54:59;97813.06;;;20.21;100.00
18850;BME280;4989;48.772;9.154;2023-07-30T08:00:01;97800.75;;;20.16;100.00
18850;BME280;4989;48.772;9.154;2023-07-30T08:05:13;97798.44;;;20.89;100.00
18850;BME280;4989;48.772;9.154;2023-07-30T08:10:16;97808.00;;;20.99;100.00
18850;BME280;4989;48.772;9.154;2023-07-30T08:15:19;97805.78;;;21.03;100.00
18850;BME280;4989;48.772;9.154;2023-07-30T08:20:21;97806.47;;;21.75;100.00
18850;BME280;4989;48.772;9.154;2023-07-30T08:25:23;97803.41;;;21.39;100.00
18850;BME280;4989;48.772;9.154;2023-07-30T08:30:26;97797.06;;;22.68;100.00
18850;BME280;4989;48.772;9.154;2023-07-30T08:35:28;97807.75;;;21.85;100.00
18850;BME280;4989;48.772;9.154;2023-07-30T08:40:31;97803.47;;;22.24;100.00
18850;BME280;4989;48.772;9.154;2023-07-30T08:45:34;97795.66;;;22.11;100.00
18850;BME280;4989;48.772;9.154;2023-07-30T08:50:37;97798.75;;;22.94;100.00
18850;BME280;4989;48.772;9.154;2023-07-30T08:55:40;97805.84;;;23.42;100.00
18850;BME280;4989;48.772;9.154;2023-07-30T09:00:44;97811.81;;;23.57;100.00
18850;BME280;4989;48.772;9.154;2023-07-30T09:05:48;97813.72;;;23.79;100.00
18850;BME280;4989;48.772;9.154;2023-07-30T09:10:51;97809.94;;;23.29;100.00
18850;BME280;4989;48.772;9.154;2023-07-30T09:15:53;97808.22;;;24.34;100.00
18850;BME280;4989;48.772;9.154;2023-07-30T09:20:55;97821.13;;;24.01;100.00
18850;BME280;4989;48.772;9.154;2023-07-30T09:26:00;97823.41;;;23.61;100.00
18850;BME280;4989;48.772;9.154;2023-07-30T09:31:05;97826.22;;;23.03;100.00
18850;BME280;4989;48.772;9.154;2023-07-30T09:36:22;97829.84;;;22.70;100.00
18850;BME280;4989;48.772;9.154;2023-07-30T09:41:25;97836.66;;;22.57;100.00
18850;BME280;4989;48.772;9.154;2023-07-30T09:46:29;97848.69;;;22.77;100.00
18850;BME280;4989;48.772;9.154;2023-07-30T09:51:32;97831.31;;;22.76;100.00
18850;BME280;4989;48.772;9.154;2023-07-30T09:56:38;97843.97;;;23.83;100.00
18850;BME280;4989;48.772;9.154;2023-07-30T10:01:47;97849.09;;;24.39;100.00
18850;BME280;4989;48.772;9.154;2023-07-30T10:07:06;97858.22;;;22.93;100.00
18850;BME280;4989;48.772;9.154;2023-07-30T10:12:16;97857.31;;;23.43;100.00
18850;BME280;4989;48.772;9.154;2023-07-30T10:17:20;97869.25;;;23.79;100.00
18850;BME280;4989;48.772;9.154;2023-07-30T10:22:24;97864.59;;;23.46;100.00
18850;BME280;4989;48.772;9.154;2023-07-30T10:27:36;97865.34;;;23.52;100.00
18850;BME280;4989;48.772;9.154;2023-07-30T10:32:58;97874.78;;;25.62;88.83
18850;BME280;4989;48.772;9.154;2023-07-30T10:38:13;97868.03;;;25.57;72.01
18850;BME280;4989;48.772;9.154;2023-07-30T10:43:19;97863.72;;;26.72;82.26
18850;BME280;4989;48.772;9.154;2023-07-30T10:48:37;97865.56;;;26.96;82.97
18850;BME280;4989;48.772;9.154;2023-07-30T10:53:48;97856.66;;;27.93;65.54
18850;BME280;4989;48.772;9.154;2023-07-30T10:58:53;97857.19;;;29.99;63.25
18850;BME280;4989;48.772;9.154;2023-07-30T11:03:57;97850.50;;;29.58;60.52
18850;BME280;4989;48.772;9.154;2023-07-30T11:08:59;97855.88;;;26.70;76.58
18850;BME280;4989;48.772;9.154;2023-07-30T11:14:02;97860.06;;;25.48;81.87
18850;BME280;4989;48.772;9.154;2023-07-30T11:19:08;97865.38;;;25.46;83.85
18850;BME280;4989;48.772;9.154;2023-07-30T11:24:12;97880.28;;;25.05;79.13
18850;BME280;4989;48.772;9.154;2023-07-30T11:29:18;97887.44;;;27.05;63.43
18850;BME280;4989;48.772;9.154;2023-07-30T11:34:21;97875.44;;;29.77;62.87
18850;BME280;4989;48.772;9.154;2023-07-30T11:39:24;97879.47;;;30.43;59.68
18850;BME280;4989;48.772;9.154;2023-07-30T11:44:37;97879.09;;;30.54;58.16
18850;BME280;4989;48.772;9.154;2023-07-30T11:49:58;97892.38;;;30.92;54.35
18850;BME280;4989;48.772;9.154;2023-07-30T11:55:04;97892.59;;;30.87;55.15
18850;BME280;4989;48.772;9.154;2023-07-30T12:00:07;97891.16;;;28.79;60.70
18850;BME280;4989;48.772;9.154;2023-07-30T12:11:12;97910.19;;;27.49;64.90
18850;BME280;4989;48.772;9.154;2023-07-30T12:16:24;97894.59;;;28.64;56.99
18850;BME280;4989;48.772;9.154;2023-07-30T12:21:26;97903.88;;;29.45;55.12
18850;BME280;4989;48.772;9.154;2023-07-30T12:26:31;97888.97;;;30.02;52.17
18850;BME280;4989;48.772;9.154;2023-07-30T12:31:33;97894.13;;;29.82;50.78
18850;BME280;4989;48.772;9.154;2023-07-30T12:36:35;97883.66;;;28.45;56.82
18850;BME280;4989;48.772;9.154;2023-07-30T12:41:38;97904.78;;;29.32;58.99
18850;BME280;4989;48.772;9.154;2023-07-30T12:46:40;97908.91;;;28.82;59.60
18850;BME280;4989;48.772;9.154;2023-07-30T12:51:43;97913.78;;;28.39;61.28
18850;BME280;4989;48.772;9.154;2023-07-30T12:56:45;97914.16;;;28.01;62.15
18850;BME280;4989;48.772;9.154;2023-07-30T13:01:50;97913.63;;;25.92;68.65
18850;BME280;4989;48.772;9.154;2023-07-30T13:06:52;97920.88;;;26.33;69.12
18850;BME280;4989;48.772;9.154;2023-07-30T13:11:55;97925.56;;;25.49;71.84
18850;BME280;4989;48.772;9.154;2023-07-30T13:17:02;97923.41;;;26.50;68.96
18850;BME280;4989;48.772;9.154;2023-07-30T13:22:09;97923.53;;;27.77;62.94
18850;BME280;4989;48.772;9.154;2023-07-30T13:27:11;97935.31;;;28.94;57.28
18850;BME280;4989;48.772;9.154;2023-07-30T13:32:13;97924.75;;;29.73;55.92
18850;BME280;4989;48.772;9.154;2023-07-30T13:37:16;97934.88;;;28.61;57.17
18850;BME280;4989;48.772;9.154;2023-07-30T13:42:20;97933.09;;;29.29;51.52
18850;BME280;4989;48.772;9.154;2023-07-30T13:47:22;97921.63;;;28.41;59.07
18850;BME280;4989;48.772;9.154;2023-07-30T13:52:25;97932.34;;;29.20;56.26
18850;BME280;4989;48.772;9.154;2023-07-30T13:57:29;97935.72;;;29.27;55.74
18850;BME280;4989;48.772;9.154;2023-07-30T14:02:31;97951.06;;;29.33;48.58
18850;BME280;4989;48.772;9.154;2023-07-30T14:07:33;97953.47;;;28.38;54.91
18850;BME280;4989;48.772;9.154;2023-07-30T14:12:35;97955.75;;;28.60;56.42
18850;BME280;4989;48.772;9.154;2023-07-30T14:23:09;97953.22;;;27.01;63.31
18850;BME280;4989;48.772;9.154;2023-07-30T14:28:12;97965.47;;;27.64;58.82
18850;BME280;4989;48.772;9.154;2023-07-30T14:33:19;97965.59;;;28.19;57.59
18850;BME280;4989;48.772;9.154;2023-07-30T14:38:21;97980.53;;;27.61;58.14
18850;BME280;4989;48.772;9.154;2023-07-30T14:43:24;97982.47;;;27.66;57.09
18850;BME280;4989;48.772;9.154;2023-07-30T14:48:28;97981.13;;;27.14;52.25
18850;BME280;4989;48.772;9.154;2023-07-30T14:53:31;97980.53;;;27.34;57.73
18850;BME280;4989;48.772;9.154;2023-07-30T14:58:35;97984.66;;;26.56;57.71
18850;BME280;4989;48.772;9.154;2023-07-30T15:03:38;97982.59;;;26.88;60.20
18850;BME280;4989;48.772;9.154;2023-07-30T15:08:40;97972.13;;;26.62;59.74
18850;BME280;4989;48.772;9.154;2023-07-30T15:13:42;97979.16;;;26.82;58.75
18850;BME280;4989;48.772;9.154;2023-07-30T15:18:44;97994.69;;;26.45;57.75
18850;BME280;4989;48.772;9.154;2023-07-30T15:23:47;98006.97;;;26.56;58.58
18850;BME280;4989;48.772;9.154;2023-07-30T15:28:49;97999.06;;;26.41;57.20
18850;BME280;4989;48.772;9.154;2023-07-30T15:33:51;97994.31;;;25.79;56.63
18850;BME280;4989;48.772;9.154;2023-07-30T15:38:55;97991.72;;;25.62;58.08
18850;BME280;4989;48.772;9.154;2023-07-30T15:43:57;98004.94;;;25.56;58.63
18850;BME280;4989;48.772;9.154;2023-07-30T15:48:59;98006.75;;;25.53;51.84
18850;BME280;4989;48.772;9.154;2023-07-30T15:54:04;98012.91;;;25.46;58.67
18850;BME280;4989;48.772;9.154;2023-07-30T15:59:06;98007.47;;;25.05;50.67
18850;BME280;4989;48.772;9.154;2023-07-30T16:04:12;98012.50;;;24.46;56.10
18850;BME280;4989;48.772;9.154;2023-07-30T16:09:17;98006.66;;;24.50;60.23
18850;BME280;4989;48.772;9.154;2023-07-30T16:14:20;97996.72;;;24.60;55.71
18850;BME280;4989;48.772;9.154;2023-07-30T16:19:24;97999.25;;;24.63;61.13
18850;BME280;4989;48.772;9.154;2023-07-30T16:24:27;98003.13;;;24.49;63.34
18850;BME280;4989;48.772;9.154;2023-07-30T16:29:30;98012.78;;;23.90;53.97
18850;BME280;4989;48.772;9.154;2023-07-30T16:34:34;98020.00;;;23.40;60.19
18850;BME280;4989;48.772;9.154;2023-07-30T16:39:37;98018.00;;;24.10;63.07
18850;BME280;4989;48.772;9.154;2023-07-30T16:44:39;98019.84;;;24.38;62.33
18850;BME280;4989;48.772;9.154;2023-07-30T16:49:41;98022.41;;;24.36;63.44
18850;BME280;4989;48.772;9.154;2023-07-30T16:54:46;98025.00;;;23.53;53.10
18850;BME280;4989;48.772;9.154;2023-07-30T16:59:50;98033.31;;;23.64;54.22
18850;BME280;4989;48.772;9.154;2023-07-30T17:04:57;98030.81;;;23.55;59.04
18850;BME280;4989;48.772;9.154;2023-07-30T17:10:01;98045.75;;;22.96;52.93
18850;BME280;4989;48.772;9.154;2023-07-30T17:15:08;98039.38;;;23.57;64.34
18850;BME280;4989;48.772;9.154;2023-07-30T17:20:15;98048.03;;;23.25;53.19
18850;BME280;4989;48.772;9.154;2023-07-30T17:25:18;98040.72;;;23.05;53.77
18850;BME280;4989;48.772;9.154;2023-07-30T17:30:20;98056.81;;;23.41;64.00
18850;BME280;4989;48.772;9.154;2023-07-30T17:35:24;98044.22;;;23.45;61.60
18850;BME280;4989;48.772;9.154;2023-07-30T17:40:26;98047.94;;;23.70;61.81
18850;BME280;4989;48.772;9.154;2023-07-30T17:45:29;98060.59;;;23.49;56.74
18850;BME280;4989;48.772;9.154;2023-07-30T17:50:31;98063.38;;;22.87;53.09
18850;BME280;4989;48.772;9.154;2023-07-30T17:55:41;98063.41;;;22.81;61.11
18850;BME280;4989;48.772;9.154;2023-07-30T18:00:46;98069.72;;;23.21;60.15
18850;BME280;4989;48.772;9.154;2023-07-30T18:05:50;98064.34;;;22.50;57.41
18850;BME280;4989;48.772;9.154;2023-07-30T18:10:52;98060.19;;;22.06;58.00
18850;BME280;4989;48.772;9.154;2023-07-30T18:15:57;98060.94;;;22.07;56.11
18850;BME280;4989;48.772;9.154;2023-07-30T18:20:59;98067.88;;;21.85;57.12
18850;BME280;4989;48.772;9.154;2023-07-30T18:26:04;98073.84;;;21.67;56.99
18850;BME280;4989;48.772;9.154;2023-07-30T18:31:06;98080.28;;;21.53;58.60
18850;BME280;4989;48.772;9.154;2023-07-30T18:36:08;98075.50;;;21.53;64.15
18850;BME280;4989;48.772;9.154;2023-07-30T18:41:12;98077.03;;;21.60;59.08
18850;BME280;4989;48.772;9.154;2023-07-30T18:46:14;98072.97;;;21.18;60.25
18850;BME280;4989;48.772;9.154;2023-07-30T18:51:16;98077.69;;;20.80;62.03
18850;BME280;4989;48.772;9.154;2023-07-30T18:56:19;98081.97;;;20.81;62.70
18850;BME280;4989;48.772;9.154;2023-07-30T19:01:21;98078.69;;;20.77;63.29
18850;BME280;4989;48.772;9.154;2023-07-30T19:06:28;98073.69;;;20.81;62.92
18850;BME280;4989;48.772;9.154;2023-07-30T19:11:31;98087.81;;;20.89;62.66
18850;BME280;4989;48.772;9.154;2023-07-30T19:16:34;98095.25;;;20.77;62.96
18850;BME280;4989;48.772;9.154;2023-07-30T19:21:39;98084.53;;;20.58;63.47
18850;BME280;4989;48.772;9.154;2023-07-30T19:26:44;98089.69;;;20.51;63.95
18850;BME280;4989;48.772;9.154;2023-07-30T19:31:49;98092.81;;;20.58;63.34
18850;BME280;4989;48.772;9.154;2023-07-30T19:36:51;98098.94;;;20.48;63.74
18850;BME280;4989;48.772;9.154;2023-07-30T19:41:53;98100.47;;;20.49;63.14
18850;BME280;4989;48.772;9.154;2023-07-30T19:46:55;98097.81;;;20.34;63.94
18850;BME280;4989;48.772;9.154;2023-07-30T19:52:01;98097.53;;;20.11;64.54
18850;BME280;4989;48.772;9.154;2023-07-30T19:57:07;98098.91;;;20.01;64.80
18850;BME280;4989;48.772;9.154;2023-07-30T20:02:09;98092.56;;;20.16;64.95
18850;BME280;4989;48.772;9.154;2023-07-30T20:07:13;98099.44;;;20.46;63.96
18850;BME280;4989;48.772;9.154;2023-07-30T20:12:19;98104.56;;;20.12;64.99
18850;BME280;4989;48.772;9.154;2023-07-30T20:17:23;98105.53;;;19.89;66.19
18850;BME280;4989;48.772;9.154;2023-07-30T20:22:25;98114.06;;;19.71;67.20
18850;BME280;4989;48.772;9.154;2023-07-30T20:27:28;98112.06;;;19.56;68.20
18850;BME280;4989;48.772;9.154;2023-07-30T20:32:30;98109.03;;;19.54;67.98
18850;BME280;4989;48.772;9.154;2023-07-30T20:37:33;98113.44;;;19.81;67.31
18850;BME280;4989;48.772;9.154;2023-07-30T20:42:37;98101.38;;;19.99;68.29
18850;BME280;4989;48.772;9.154;2023-07-30T20:47:39;98103.44;;;20.45;68.97
18850;BME280;4989;48.772;9.154;2023-07-30T20:52:47;98092.38;;;20.45;65.69
18850;BME280;4989;48.772;9.154;2023-07-30T20:57:57;98090.75;;;20.53;69.36
18850;BME280;4989;48.772;9.154;2023-07-30T21:02:59;98095.78;;;21.76;82.07
18850;BME280;4989;48.772;9.154;2023-07-30T21:08:03;98097.34;;;22.43;77.33
18850;BME280;4989;48.772;9.154;2023-07-30T21:13:06;98088.78;;;22.63;72.70
18850;BME280;4989;48.772;9.154;2023-07-30T21:18:13;98104.09;;;22.36;68.73
18850;BME280;4989;48.772;9.154;2023-07-30T21:23:16;98098.31;;;22.39;74.70
18850;BME280;4989;48.772;9.154;2023-07-30T21:28:18;98088.03;;;22.51;75.05
18850;BME280;4989;48.772;9.154;2023-07-30T21:33:21;98084.78;;;22.64;72.82
18850;BME280;4989;48.772;9.154;2023-07-30T21:38:24;98082.78;;;22.70;71.99
18850;BME280;4989;48.772;9.154;2023-07-30T21:43:32;98087.31;;;22.73;73.03
18850;BME280;4989;48.772;9.154;2023-07-30T21:48:34;98087.31;;;22.73;72.10
18850;BME280;4989;48.772;9.154;2023-07-30T21:53:36;98095.41;;;22.11;61.76
18850;BME280;4989;48.772;9.154;2023-07-30T21:58:39;98091.25;;;21.79;62.29
18850;BME280;4989;48.772;9.154;2023-07-30T22:03:41;98099.47;;;20.98;67.67
18850;BME280;4989;48.772;9.154;2023-07-30T22:08:43;98106.06;;;21.07;66.14
18850;BME280;4989;48.772;9.154;2023-07-30T22:13:46;98105.03;;;21.04;67.33
18850;BME280;4989;48.772;9.154;2023-07-30T22:18:48;98098.28;;;20.53;66.88
18850;BME280;4989;48.772;9.154;2023-07-30T22:23:53;98097.19;;;19.33;71.53
18850;BME280;4989;48.772;9.154;2023-07-30T22:28:57;98096.69;;;19.50;72.01
18850;BME280;4989;48.772;9.154;2023-07-30T22:34:02;98096.69;;;20.26;75.40
18850;BME280;4989;48.772;9.154;2023-07-30T22:39:05;98092.28;;;20.34;69.61
18850;BME280;4989;48.772;9.154;2023-07-30T22:44:07;98097.25;;;20.09;68.79
18850;BME280;4989;48.772;9.154;2023-07-30T22:49:12;98093.31;;;19.60;72.69
18850;BME280;4989;48.772;9.154;2023-07-30T22:54:16;98104.25;;;18.90;76.52
18850;BME280;4989;48.772;9.154;2023-07-30T22:59:19;98099.41;;;19.14;77.57
18850;BME280;4989;48.772;9.154;2023-07-30T23:04:21;98085.78;;;20.37;88.01
18850;BME280;4989;48.772;9.154;2023-07-30T23:09:23;98094.03;;;21.41;81.30
18850;BME280;4989;48.772;9.154;2023-07-30T23:14:26;98086.41;;;21.31;79.03
18850;BME280;4989;48.772;9.154;2023-07-30T23:19:30;98092.53;;;21.83;78.20
18850;BME280;4989;48.772;9.154;2023-07-30T23:24:33;98083.50;;;20.82;67.90
18850;BME280;4989;48.772;9.154;2023-07-30T23:29:40;98075.75;;;19.08;75.91
18850;BME280;4989;48.772;9.154;2023-07-30T23:34:42;98075.19;;;18.20;79.91
18850;BME280;4989;48.772;9.154;2023-07-30T23:39:45;98067.31;;;17.89;82.91
18850;BME280;4989;48.772;9.154;2023-07-30T23:44:55;98055.00;;;17.75;84.50
18850;BME280;4989;48.772;9.154;2023-07-30T23:49:57;98065.28;;;18.97;83.18
18850;BME280;4989;48.772;9.154;2023-07-30T23:55:00;98069.84;;;19.15;78.22
